| time (UTC) | temp F | wind direction | speed MPH | gust MPH | rain 1hr in | rain 24hr in | rain mn in | humidity % | barometer mb |
| 20260906145138 | 67 | 360 | 8.0 | 14.0 | 0.02 | 0.02 | 0.02 | 97 | 996.9 |
| 20260906144542 | 67 | 51 | 7.0 | 14.0 | 0.02 | 0.02 | 0.02 | 97 | 997.3 |
| 20260906144037 | 67 | 30 | 9.0 | 14.0 | 0.02 | 0.02 | 0.02 | 97 | 997.3 |
| 20260906143539 | 66 | 355 | 8.0 | 18.0 | 0.02 | 0.02 | 0.02 | 97 | 997.1 |
| 20260906143044 | 66 | 321 | 12.0 | 18.0 | 0.02 | 0.02 | 0.02 | 97 | 996.9 |
| 20260906142537 | 66 | 360 | 11.0 | 15.0 | 0.02 | 0.02 | 0.02 | 97 | 996.9 |
| 20260906142037 | 66 | 17 | 12.0 | 18.0 | 0.01 | 0.01 | 0.01 | 97 | 996.8 |
| 20260906141540 | 66 | 38 | 9.0 | 21.0 | 0.01 | 0.01 | 0.01 | 97 | 996.9 |
| 20260906141036 | 66 | 16 | 14.0 | 21.0 | 0.01 | 0.01 | 0.01 | 97 | 996.1 |
| 20260906140535 | 66 | 5 | 12.0 | 18.0 | 0.00 | 0.00 | 0.00 | 97 | 996.8 |
| 20260906140036 | 66 | 28 | 7.0 | 10.0 | 0.00 | 0.00 | 0.00 | 97 | 997.8 |
| 20260906135534 | 66 | 360 | 6.0 | 10.0 | 0.00 | 0.00 | 0.00 | 97 | 997.9 |
| 20260906134547 | 66 | 360 | 6.0 | 9.0 | 0.00 | 0.00 | 0.00 | 97 | 998.1 |
| 20260906134034 | 66 | 65 | 4.0 | 9.0 | 0.00 | 0.00 | 0.00 | 97 | 998.5 |
| 20260906133533 | 66 | 360 | 6.0 | 9.0 | 0.00 | 0.00 | 0.00 | 97 | 998.5 |
| 20260906133037 | 66 | 360 | 6.0 | 9.0 | 0.00 | 0.00 | 0.00 | 97 | 998.7 |
| 20260906132533 | 66 | 360 | 5.0 | 10.0 | 0.00 | 0.00 | 0.00 | 97 | 998.7 |
| 20260906132031 | 66 | 360 | 7.0 | 13.0 | 0.00 | 0.00 | 0.00 | 97 | 998.5 |
| 20260906131532 | 66 | 360 | 8.0 | 13.0 | 0.00 | 0.00 | 0.00 | 96 | 998.3 |
| 20260906131031 | 66 | 360 | 8.0 | 14.0 | 0.00 | 0.00 | 0.00 | 96 | 998.3 |
| 20260906130531 | 66 | 360 | 11.0 | 14.0 | 0.00 | 0.00 | 0.00 | 97 | 998.1 |
| 20260906130033 | 66 | 360 | 9.0 | 15.0 | 0.00 | 0.00 | 0.00 | 97 | 998.5 |
| 20260906125530 | 66 | 360 | 11.0 | 15.0 | 0.00 | 0.00 | 0.00 | 97 | 998.4 |
| 20260906124529 | 66 | 360 | 10.0 | 14.0 | 0.00 | 0.00 | 0.00 | 96 | 998.2 |
| 20260906124028 | 66 | 360 | 10.0 | 13.0 | 0.00 | 0.00 | 0.00 | 96 | 998.2 |
| 20260906123526 | 65 | 360 | 10.0 | 12.0 | 0.00 | 0.00 | 0.00 | 97 | 997.6 |
| 20260906123045 | 65 | 360 | 7.0 | 11.0 | 0.00 | 0.00 | 0.00 | 96 | 997.7 |
| 20260906122526 | 65 | 360 | 8.0 | 11.0 | 0.00 | 0.00 | 0.00 | 96 | 997.3 |
| 20260906122026 | 65 | 360 | 5.0 | 13.0 | 0.00 | 0.00 | 0.00 | 96 | 997.6 |
| 20260906121527 | 65 | 360 | 9.0 | 14.0 | 0.00 | 0.00 | 0.00 | 96 | 997.4 |
| 20260906121025 | 65 | 360 | 10.0 | 12.0 | 0.00 | 0.00 | 0.00 | 96 | 997.4 |
| 20260906120525 | 65 | 360 | 9.0 | 13.0 | 0.00 | 0.00 | 0.00 | 96 | 997.4 |
| 20260906120023 | 65 | 360 | 8.0 | 12.0 | 0.00 | 0.00 | 0.00 | 96 | 997.4 |
| 20260906115523 | 65 | 360 | 9.0 | 12.0 | 0.00 | 0.00 | 0.00 | 96 | 997.5 |
| 20260906114525 | 65 | 360 | 6.0 | 9.0 | 0.00 | 0.00 | 0.00 | 96 | 998.1 |
| 20260906114024 | 65 | 360 | 6.0 | 9.0 | 0.00 | 0.00 | 0.00 | 96 | 998.0 |
| 20260906113523 | 65 | 360 | 6.0 | 8.0 | 0.00 | 0.00 | 0.00 | 96 | 998.0 |
| 20260906113024 | 65 | 360 | 4.0 | 8.0 | 0.00 | 0.00 | 0.00 | 96 | 998.3 |
| 20260906112526 | 65 | 360 | 5.0 | 9.0 | 0.00 | 0.00 | 0.00 | 96 | 998.1 |
| 20260906112023 | 65 | 360 | 7.0 | 9.0 | 0.00 | 0.00 | 0.00 | 96 | 998.0 |
| 20260906111527 | 65 | 360 | 5.0 | 8.0 | 0.00 | 0.00 | 0.00 | 96 | 998.0 |
| 20260906111022 | 65 | 360 | 6.0 | 8.0 | 0.00 | 0.00 | 0.00 | 96 | 998.1 |
| 20260906110522 | 65 | 360 | 3.0 | 6.0 | 0.00 | 0.00 | 0.00 | 96 | 998.3 |
| 20260906110021 | 65 | 360 | 3.0 | 6.0 | 0.00 | 0.00 | 0.00 | 96 | 998.2 |
| 20260906105522 | 65 | 360 | 4.0 | 7.0 | 0.00 | 0.00 | 0.00 | 95 | 998.0 |
| 20260906104521 | 66 | 360 | 5.0 | 9.0 | 0.00 | 0.00 | 0.00 | 95 | 997.8 |
| 20260906104022 | 66 | 355 | 6.0 | 9.0 | 0.00 | 0.00 | 0.00 | 95 | 997.7 |
| 20260906103519 | 66 | 360 | 6.0 | 8.0 | 0.00 | 0.00 | 0.00 | 95 | 997.7 |
| 20260906103019 | 66 | 355 | 6.0 | 8.0 | 0.00 | 0.00 | 0.00 | 95 | 997.7 |
| 20260906102519 | 66 | 5 | 6.0 | 9.0 | 0.00 | 0.00 | 0.00 | 95 | 997.5 |
| 20260906102018 | 66 | 360 | 6.0 | 9.0 | 0.00 | 0.00 | 0.00 | 95 | 997.5 |
| 20260906101526 | 66 | 360 | 6.0 | 8.0 | 0.00 | 0.00 | 0.00 | 95 | 997.6 |
| 20260906101018 | 66 | 360 | 6.0 | 9.0 | 0.00 | 0.00 | 0.00 | 95 | 997.5 |
| 20260906100518 | 66 | 360 | 6.0 | 9.0 | 0.00 | 0.00 | 0.00 | 95 | 997.6 |
| 20260906100019 | 66 | 360 | 5.0 | 8.0 | 0.00 | 0.00 | 0.00 | 95 | 997.6 |
| 20260906095517 | 66 | 360 | 6.0 | 9.0 | 0.00 | 0.00 | 0.00 | 95 | 997.6 |
| 20260906094518 | 66 | 348 | 7.0 | 10.0 | 0.00 | 0.00 | 0.00 | 94 | 997.4 |
| 20260906094018 | 66 | 360 | 7.0 | 10.0 | 0.00 | 0.00 | 0.00 | 94 | 997.4 |
| 20260906093522 | 66 | 360 | 6.0 | 10.0 | 0.00 | 0.00 | 0.00 | 94 | 997.3 |
| 20260906093033 | 66 | 360 | 7.0 | 10.0 | 0.00 | 0.00 | 0.00 | 94 | 997.3 |
| 20260906092517 | 66 | 360 | 7.0 | 10.0 | 0.00 | 0.00 | 0.00 | 94 | 997.1 |
| 20260906092022 | 66 | 348 | 6.0 | 9.0 | 0.00 | 0.00 | 0.00 | 94 | 997.4 |
| 20260906091517 | 67 | 360 | 6.0 | 9.0 | 0.00 | 0.00 | 0.00 | 94 | 997.5 |
| 20260906091016 | 67 | 360 | 7.0 | 9.0 | 0.00 | 0.00 | 0.00 | 94 | 997.4 |
| 20260906090516 | 66 | 360 | 6.0 | 10.0 | 0.00 | 0.00 | 0.00 | 94 | 997.4 |
| 20260906090035 | 67 | 360 | 7.0 | 9.0 | 0.00 | 0.00 | 0.00 | 93 | 997.4 |
| 20260906085515 | 67 | 360 | 6.0 | 9.0 | 0.00 | 0.00 | 0.00 | 93 | 997.5 |
| 20260906084514 | 67 | 360 | 7.0 | 10.0 | 0.00 | 0.00 | 0.00 | 93 | 997.6 |
| 20260906084014 | 67 | 9 | 8.0 | 10.0 | 0.00 | 0.00 | 0.00 | 93 | 997.4 |
| 20260906083513 | 67 | 360 | 7.0 | 11.0 | 0.00 | 0.00 | 0.00 | 93 | 997.4 |
| 20260906083012 | 67 | 360 | 8.0 | 11.0 | 0.00 | 0.00 | 0.00 | 93 | 997.5 |
| 20260906082512 | 67 | 360 | 8.0 | 11.0 | 0.00 | 0.00 | 0.00 | 93 | 997.5 |
| 20260906082014 | 67 | 360 | 8.0 | 10.0 | 0.00 | 0.00 | 0.00 | 93 | 997.4 |
| 20260906081512 | 67 | 360 | 8.0 | 10.0 | 0.00 | 0.00 | 0.00 | 93 | 997.5 |
| 20260906081011 | 67 | 360 | 7.0 | 9.0 | 0.00 | 0.00 | 0.00 | 92 | 997.5 |
| 20260906080511 | 67 | 360 | 6.0 | 9.0 | 0.00 | 0.00 | 0.00 | 92 | 997.7 |
| 20260906080010 | 67 | 360 | 6.0 | 9.0 | 0.00 | 0.00 | 0.00 | 92 | 997.7 |
| 20260906075509 | 67 | 360 | 6.0 | 9.0 | 0.00 | 0.00 | 0.00 | 92 | 997.8 |
| 20260906074508 | 68 | 360 | 7.0 | 9.0 | 0.00 | 0.00 | 0.00 | 91 | 997.7 |
| 20260906074007 | 68 | 360 | 7.0 | 9.0 | 0.00 | 0.00 | 0.00 | 91 | 997.7 |
| 20260906073509 | 68 | 360 | 7.0 | 9.0 | 0.00 | 0.00 | 0.00 | 91 | 997.7 |
| 20260906073006 | 68 | 360 | 6.0 | 10.0 | 0.00 | 0.00 | 0.00 | 91 | 997.8 |
| 20260906072506 | 68 | 360 | 7.0 | 11.0 | 0.00 | 0.00 | 0.00 | 91 | 997.8 |
| 20260906072010 | 68 | 360 | 8.0 | 11.0 | 0.00 | 0.00 | 0.00 | 91 | 997.8 |
| 20260906071505 | 68 | 360 | 8.0 | 10.0 | 0.00 | 0.00 | 0.00 | 91 | 997.8 |
| 20260906071008 | 68 | 360 | 7.0 | 10.0 | 0.00 | 0.00 | 0.00 | 91 | 997.8 |
| 20260906070507 | 68 | 360 | 7.0 | 10.0 | 0.00 | 0.00 | 0.00 | 91 | 997.9 |
| 20260906070004 | 68 | 360 | 7.0 | 9.0 | 0.00 | 0.00 | 0.00 | 91 | 998.0 |
| 20260906065507 | 68 | 360 | 7.0 | 9.0 | 0.00 | 0.00 | 0.00 | 90 | 998.2 |
| 20260906064504 | 69 | 360 | 7.0 | 10.0 | 0.00 | 0.00 | 0.00 | 90 | 998.2 |
| 20260906064003 | 69 | 360 | 6.0 | 9.0 | 0.00 | 0.00 | 0.00 | 89 | 998.2 |
| 20260906063501 | 69 | 360 | 6.0 | 10.0 | 0.00 | 0.00 | 0.00 | 89 | 998.2 |
| 20260906063001 | 69 | 360 | 7.0 | 10.0 | 0.00 | 0.00 | 0.00 | 89 | 998.2 |
| 20260906062502 | 69 | 360 | 8.0 | 11.0 | 0.00 | 0.00 | 0.00 | 89 | 998.1 |
| 20260906062100 | 69 | 360 | 8.0 | 11.0 | 0.00 | 0.00 | 0.00 | 88 | 998.1 |
| 20260906061659 | 70 | 360 | 8.0 | 11.0 | 0.00 | 0.00 | 0.00 | 88 | 998.2 |
| 20260906061102 | 70 | 360 | 8.0 | 13.0 | 0.00 | 0.00 | 0.00 | 88 | 998.2 |
| 20260906060557 | 70 | 360 | 9.0 | 14.0 | 0.00 | 0.00 | 0.00 | 88 | 998.2 |
| 20260906060058 | 70 | 360 | 9.0 | 14.0 | 0.00 | 0.00 | 0.00 | 88 | 998.0 |
| 20260906055557 | 70 | 360 | 9.0 | 13.0 | 0.00 | 0.00 | 0.00 | 88 | 998.2 |
| 20260906055156 | 70 | 360 | 9.0 | 12.0 | 0.00 | 0.00 | 0.00 | 87 | 998.2 |
| 20260906054555 | 70 | 360 | 9.0 | 13.0 | 0.00 | 0.00 | 0.00 | 87 | 998.2 |
| 20260906054058 | 70 | 360 | 10.0 | 14.0 | 0.00 | 0.00 | 0.00 | 87 | 998.0 |
| 20260906053553 | 70 | 360 | 9.0 | 13.0 | 0.00 | 0.00 | 0.00 | 87 | 998.1 |
| 20260906053053 | 70 | 360 | 9.0 | 12.0 | 0.00 | 0.00 | 0.00 | 86 | 998.0 |
| 20260906052558 | 71 | 360 | 9.0 | 12.0 | 0.00 | 0.00 | 0.00 | 86 | 998.0 |
| 20260906052052 | 71 | 360 | 8.0 | 12.0 | 0.00 | 0.00 | 0.00 | 85 | 997.9 |
| 20260906051600 | 71 | 360 | 9.0 | 12.0 | 0.00 | 0.00 | 0.00 | 85 | 998.0 |
| 20260906051052 | 71 | 360 | 8.0 | 12.0 | 0.00 | 0.00 | 0.00 | 85 | 998.0 |
| 20260906050550 | 71 | 360 | 9.0 | 13.0 | 0.00 | 0.00 | 0.00 | 84 | 998.0 |
| 20260906045552 | 72 | 360 | 9.0 | 13.0 | 0.00 | 0.00 | 0.00 | 84 | 997.9 |
| 20260906045150 | 72 | 360 | 9.0 | 14.0 | 0.00 | 0.00 | 0.00 | 83 | 997.9 |
| 20260906044553 | 72 | 360 | 10.0 | 14.0 | 0.00 | 0.00 | 0.00 | 83 | 998.2 |
| 20260906044054 | 72 | 360 | 9.0 | 13.0 | 0.00 | 0.00 | 0.00 | 83 | 998.0 |
| 20260906043550 | 72 | 360 | 9.0 | 13.0 | 0.00 | 0.00 | 0.00 | 83 | 998.1 |
| 20260906043058 | 72 | 360 | 8.0 | 13.0 | 0.00 | 0.00 | 0.00 | 82 | 998.0 |
| 20260906042549 | 72 | 360 | 9.0 | 13.0 | 0.00 | 0.00 | 0.00 | 82 | 998.0 |
| 20260906042050 | 71 | 360 | 9.0 | 13.0 | 0.00 | 0.00 | 0.00 | 82 | 997.9 |
| 20260906041550 | 71 | 360 | 9.0 | 13.0 | 0.00 | 0.00 | 0.00 | 82 | 997.8 |
| 20260906041049 | 71 | 360 | 9.0 | 13.0 | 0.00 | 0.00 | 0.00 | 81 | 997.9 |
| 20260906040548 | 72 | 360 | 9.0 | 13.0 | 0.00 | 0.00 | 0.00 | 81 | 998.0 |
| 20260906040048 | 72 | 360 | 10.0 | 13.0 | 0.00 | 0.00 | 0.00 | 80 | 997.9 |
| 20260906035551 | 72 | 360 | 10.0 | 13.0 | 0.00 | 0.00 | 0.00 | 80 | 997.9 |
| 20260906035146 | 72 | 360 | 11.0 | 13.0 | 0.00 | 0.00 | 0.00 | 79 | 997.9 |
| 20260906034606 | 72 | 360 | 11.0 | 13.0 | 0.00 | 0.00 | 0.00 | 79 | 998.0 |
| 20260906034046 | 72 | 360 | 10.0 | 13.0 | 0.00 | 0.00 | 0.00 | 79 | 997.9 |
| 20260906033546 | 72 | 360 | 9.0 | 13.0 | 0.00 | 0.00 | 0.00 | 78 | 997.9 |
| 20260906033046 | 72 | 360 | 9.0 | 11.0 | 0.00 | 0.00 | 0.00 | 78 | 997.9 |
| 20260906032546 | 72 | 360 | 8.0 | 12.0 | 0.00 | 0.00 | 0.00 | 78 | 998.0 |
| 20260906032045 | 73 | 360 | 9.0 | 12.0 | 0.00 | 0.00 | 0.00 | 77 | 998.0 |
| 20260906031549 | 73 | 360 | 9.0 | 12.0 | 0.00 | 0.00 | 0.00 | 76 | 998.1 |
| 20260906031044 | 73 | 360 | 10.0 | 12.0 | 0.00 | 0.00 | 0.00 | 76 | 997.9 |
| 20260906030544 | 73 | 360 | 9.0 | 12.0 | 0.00 | 0.00 | 0.00 | 76 | 998.1 |
| 20260906030044 | 73 | 360 | 9.0 | 12.0 | 0.00 | 0.00 | 0.00 | 75 | 998.0 |
| 20260906025544 | 74 | 360 | 8.0 | 11.0 | 0.00 | 0.00 | 0.00 | 75 | 998.1 |
| 20260906025144 | 73 | 360 | 9.0 | 11.0 | 0.00 | 0.00 | 0.00 | 75 | 998.1 |
| 20260906024542 | 73 | 360 | 9.0 | 11.0 | 0.00 | 0.00 | 0.00 | 75 | 998.1 |
| 20260906024041 | 73 | 360 | 7.0 | 10.0 | 0.00 | 0.00 | 0.00 | 75 | 998.1 |
| 20260906023541 | 73 | 360 | 7.0 | 9.0 | 0.00 | 0.00 | 0.00 | 75 | 998.0 |
| 20260906023040 | 73 | 360 | 6.0 | 9.0 | 0.00 | 0.00 | 0.00 | 75 | 998.0 |
| 20260906022539 | 73 | 360 | 7.0 | 9.0 | 0.00 | 0.00 | 0.00 | 74 | 997.9 |
| 20260906022038 | 74 | 300 | 6.0 | 9.0 | 0.00 | 0.00 | 0.00 | 74 | 997.9 |
| 20260906021538 | 74 | 360 | 7.0 | 9.0 | 0.00 | 0.00 | 0.00 | 74 | 997.6 |
| 20260906021039 | 74 | 360 | 6.0 | 10.0 | 0.00 | 0.00 | 0.00 | 73 | 997.6 |
| 20260906020535 | 74 | 360 | 7.0 | 10.0 | 0.00 | 0.00 | 0.00 | 73 | 997.5 |
| 20260906020034 | 74 | 311 | 7.0 | 9.0 | 0.00 | 0.00 | 0.00 | 72 | 997.4 |
| 20260906015534 | 75 | 360 | 7.0 | 9.0 | 0.00 | 0.00 | 0.00 | 71 | 997.3 |
| 20260906015133 | 75 | 360 | 8.0 | 10.0 | 0.00 | 0.00 | 0.00 | 70 | 997.4 |
| 20260906014533 | 76 | 360 | 8.0 | 10.0 | 0.00 | 0.00 | 0.00 | 70 | 997.2 |
| 20260906014030 | 76 | 360 | 7.0 | 10.0 | 0.00 | 0.00 | 0.00 | 69 | 997.1 |
| 20260906013529 | 77 | 360 | 7.0 | 10.0 | 0.00 | 0.00 | 0.00 | 68 | 997.1 |
| 20260906013037 | 78 | 325 | 6.0 | 12.0 | 0.00 | 0.00 | 0.00 | 67 | 996.9 |
| 20260906012526 | 78 | 360 | 8.0 | 12.0 | 0.00 | 0.00 | 0.00 | 66 | 996.9 |
| 20260906012026 | 79 | 360 | 8.0 | 13.0 | 0.00 | 0.00 | 0.00 | 66 | 996.7 |
| 20260906011524 | 79 | 360 | 8.0 | 14.0 | 0.00 | 0.00 | 0.00 | 65 | 996.7 |
| 20260906011025 | 80 | 315 | 10.0 | 14.0 | 0.00 | 0.00 | 0.00 | 64 | 996.6 |
| 20260906010522 | 80 | 334 | 8.0 | 13.0 | 0.00 | 0.00 | 0.00 | 64 | 996.6 |
| 20260906010023 | 80 | 355 | 8.0 | 13.0 | 0.00 | 0.00 | 0.00 | 63 | 996.6 |
| 20260906005519 | 81 | 346 | 9.0 | 12.0 | 0.00 | 0.00 | 0.00 | 62 | 996.5 |
| 20260906005121 | 82 | 5 | 8.0 | 14.0 | 0.00 | 0.00 | 0.00 | 62 | 996.4 |
| 20260906004519 | 82 | 360 | 8.0 | 14.0 | 0.00 | 0.00 | 0.00 | 62 | 996.3 |
| 20260906004019 | 82 | 15 | 10.0 | 15.0 | 0.00 | 0.00 | 0.00 | 62 | 996.3 |
| 20260906003517 | 82 | 360 | 10.0 | 15.0 | 0.00 | 0.00 | 0.00 | 61 | 996.2 |
| 20260906003016 | 83 | 26 | 10.0 | 16.0 | 0.00 | 0.00 | 0.00 | 60 | 996.1 |
| 20260906002514 | 83 | 360 | 10.0 | 16.0 | 0.00 | 0.00 | 0.00 | 60 | 996.1 |
| 20260906002015 | 84 | 360 | 10.0 | 14.0 | 0.00 | 0.00 | 0.00 | 59 | 996.1 |
| 20260906001512 | 84 | 360 | 10.0 | 15.0 | 0.00 | 0.00 | 0.00 | 59 | 996.3 |
| 20260906001012 | 84 | 13 | 10.0 | 15.0 | 0.00 | 0.00 | 0.00 | 59 | 996.0 |
| 20260906000511 | 84 | 360 | 9.0 | 15.0 | 0.00 | 0.00 | 0.00 | 58 | 996.1 |
| 20260906000010 | 85 | 15 | 11.0 | 15.0 | 0.00 | 0.00 | 0.00 | 57 | 995.9 |
| 20260905235508 | 85 | 360 | 10.0 | 14.0 | 0.00 | 0.00 | 0.00 | 57 | 995.9 |
| 20260905235108 | 85 | 360 | 11.0 | 15.0 | 0.00 | 0.00 | 0.00 | 57 | 995.9 |
| 20260905234511 | 85 | 344 | 11.0 | 15.0 | 0.00 | 0.00 | 0.00 | 56 | 996.0 |
| 20260905234008 | 86 | 22 | 10.0 | 15.0 | 0.00 | 0.00 | 0.00 | 56 | 995.8 |
| 20260905233512 | 86 | 360 | 9.0 | 15.0 | 0.00 | 0.00 | 0.00 | 55 | 995.8 |
| 20260905233008 | 87 | 17 | 10.0 | 15.0 | 0.00 | 0.00 | 0.00 | 54 | 995.6 |
| 20260905232506 | 87 | 360 | 8.0 | 13.0 | 0.00 | 0.00 | 0.00 | 53 | 995.7 |
| 20260905232006 | 87 | 346 | 7.0 | 13.0 | 0.00 | 0.00 | 0.00 | 53 | 995.8 |
| 20260905231513 | 87 | 360 | 5.0 | 12.0 | 0.00 | 0.00 | 0.00 | 54 | 995.7 |
| 20260905231005 | 87 | 360 | 9.0 | 14.0 | 0.00 | 0.00 | 0.00 | 54 | 995.8 |
| 20260905230505 | 87 | 360 | 7.0 | 12.0 | 0.00 | 0.00 | 0.00 | 54 | 995.7 |
| 20260905230005 | 87 | 26 | 5.0 | 13.0 | 0.00 | 0.00 | 0.00 | 54 | 995.7 |
| 20260905225507 | 87 | 22 | 9.0 | 13.0 | 0.00 | 0.00 | 0.00 | 54 | 995.6 |
| 20260905225105 | 87 | 360 | 10.0 | 13.0 | 0.00 | 0.00 | 0.00 | 54 | 995.6 |
| 20260905224504 | 87 | 21 | 10.0 | 13.0 | 0.00 | 0.00 | 0.00 | 54 | 995.6 |
| 20260905224004 | 87 | 15 | 8.0 | 13.0 | 0.00 | 0.00 | 0.00 | 53 | 995.6 |
| 20260905223503 | 87 | 51 | 4.0 | 13.0 | 0.00 | 0.00 | 0.00 | 54 | 995.5 |
| 20260905223004 | 88 | 360 | 8.0 | 13.0 | 0.00 | 0.00 | 0.00 | 53 | 995.6 |
| 20260905222504 | 88 | 360 | 8.0 | 18.0 | 0.00 | 0.00 | 0.00 | 53 | 995.6 |
| 20260905222006 | 87 | 351 | 11.0 | 18.0 | 0.00 | 0.00 | 0.00 | 54 | 995.5 |
| 20260905221505 | 87 | 360 | 7.0 | 12.0 | 0.00 | 0.00 | 0.00 | 54 | 995.5 |
| 20260905221002 | 87 | 355 | 7.0 | 12.0 | 0.00 | 0.00 | 0.00 | 54 | 995.6 |
| 20260905220502 | 87 | 360 | 6.0 | 12.0 | 0.00 | 0.00 | 0.00 | 54 | 995.7 |
| 20260905220002 | 87 | 19 | 7.0 | 15.0 | 0.00 | 0.00 | 0.00 | 54 | 995.7 |
| 20260905215502 | 87 | 18 | 9.0 | 16.0 | 0.00 | 0.00 | 0.00 | 54 | 995.7 |
| 20260905215001 | 87 | 348 | 10.0 | 20.0 | 0.00 | 0.00 | 0.00 | 54 | 995.8 |
| 20260905214502 | 87 | 331 | 9.0 | 20.0 | 0.00 | 0.00 | 0.00 | 54 | 995.6 |
| 20260905214001 | 88 | 360 | 9.0 | 16.0 | 0.00 | 0.00 | 0.00 | 54 | 995.8 |
| 20260905213502 | 88 | 360 | 4.0 | 13.0 | 0.00 | 0.00 | 0.00 | 53 | 995.7 |
| 20260905213001 | 88 | 360 | 10.0 | 13.0 | 0.00 | 0.00 | 0.00 | 53 | 995.7 |
| 20260905212502 | 88 | 360 | 7.0 | 11.0 | 0.00 | 0.00 | 0.00 | 52 | 995.7 |
| 20260905212100 | 88 | 360 | 5.0 | 13.0 | 0.00 | 0.00 | 0.00 | 52 | 995.7 |
| 20260905211600 | 88 | 360 | 7.0 | 13.0 | 0.00 | 0.00 | 0.00 | 53 | 995.7 |
| 20260905211103 | 88 | 360 | 5.0 | 11.0 | 0.00 | 0.00 | 0.00 | 53 | 995.7 |
| 20260905210601 | 88 | 360 | 5.0 | 10.0 | 0.00 | 0.00 | 0.00 | 53 | 995.8 |
| 20260905210107 | 87 | 350 | 5.0 | 12.0 | 0.00 | 0.00 | 0.00 | 54 | 995.7 |
| 20260905205600 | 87 | 32 | 7.0 | 12.0 | 0.00 | 0.00 | 0.00 | 53 | 995.8 |
| 20260905205057 | 88 | 40 | 2.0 | 11.0 | 0.00 | 0.00 | 0.00 | 53 | 995.8 |
| 20260905204058 | 87 | 360 | 7.0 | 12.0 | 0.00 | 0.00 | 0.00 | 53 | 995.9 |
| 20260905203558 | 87 | 360 | 6.0 | 11.0 | 0.00 | 0.00 | 0.00 | 54 | 995.8 |
| 20260905203108 | 87 | 340 | 7.0 | 11.0 | 0.00 | 0.00 | 0.00 | 54 | 995.9 |
| 20260905202553 | 87 | 360 | 7.0 | 11.0 | 0.00 | 0.00 | 0.00 | 54 | 995.9 |
| 20260905202053 | 87 | 360 | 4.0 | 9.0 | 0.00 | 0.00 | 0.00 | 54 | 995.8 |
| 20260905201554 | 87 | 360 | 6.0 | 10.0 | 0.00 | 0.00 | 0.00 | 53 | 995.8 |
| 20260905201052 | 87 | 360 | 4.0 | 9.0 | 0.00 | 0.00 | 0.00 | 54 | 995.8 |
| 20260905200553 | 86 | 360 | 3.0 | 9.0 | 0.00 | 0.00 | 0.00 | 56 | 995.9 |
| 20260905200059 | 86 | 33 | 6.0 | 9.0 | 0.00 | 0.00 | 0.00 | 56 | 996.0 |
| 20260905195551 | 85 | 360 | 4.0 | 9.0 | 0.00 | 0.00 | 0.00 | 57 | 995.9 |
| 20260905195052 | 84 | 5 | 2.0 | 9.0 | 0.00 | 0.00 | 0.00 | 57 | 996.0 |
| 20260905194053 | 85 | 17 | 5.0 | 11.0 | 0.00 | 0.00 | 0.00 | 57 | 996.0 |
| 20260905193555 | 85 | 10 | 6.0 | 11.0 | 0.00 | 0.00 | 0.00 | 57 | 996.0 |
| 20260905193052 | 84 | 332 | 4.0 | 10.0 | 0.00 | 0.00 | 0.00 | 58 | 996.0 |
| 20260905192555 | 84 | 348 | 5.0 | 10.0 | 0.00 | 0.00 | 0.00 | 58 | 996.1 |
| 20260905192053 | 85 | 337 | 5.0 | 11.0 | 0.00 | 0.00 | 0.00 | 58 | 996.1 |
| 20260905191552 | 84 | 317 | 6.0 | 11.0 | 0.00 | 0.00 | 0.00 | 58 | 996.3 |
| 20260905191052 | 84 | 298 | 1.0 | 10.0 | 0.00 | 0.00 | 0.00 | 58 | 996.3 |
| 20260905190551 | 84 | 321 | 3.0 | 11.0 | 0.00 | 0.00 | 0.00 | 59 | 996.3 |
| 20260905190052 | 83 | 306 | 7.0 | 11.0 | 0.00 | 0.00 | 0.00 | 59 | 996.2 |
| 20260905185551 | 83 | 291 | 5.0 | 11.0 | 0.00 | 0.00 | 0.00 | 60 | 996.2 |
| 20260905185051 | 83 | 30 | 2.0 | 12.0 | 0.00 | 0.00 | 0.00 | 61 | 996.1 |
| 20260905184050 | 83 | 360 | 5.0 | 11.0 | 0.00 | 0.00 | 0.00 | 61 | 996.1 |
| 20260905183551 | 83 | 360 | 5.0 | 11.0 | 0.00 | 0.00 | 0.00 | 61 | 996.2 |
| 20260905183050 | 82 | 360 | 2.0 | 13.0 | 0.00 | 0.00 | 0.00 | 62 | 996.1 |
| 20260905182550 | 83 | 329 | 8.0 | 13.0 | 0.00 | 0.00 | 0.00 | 62 | 996.1 |
| 20260905182050 | 82 | 81 | 4.0 | 10.0 | 0.00 | 0.00 | 0.00 | 62 | 996.1 |
| 20260905181550 | 82 | 360 | 6.0 | 9.0 | 0.00 | 0.00 | 0.00 | 63 | 995.9 |
| 20260905181050 | 82 | 360 | 3.0 | 12.0 | 0.00 | 0.00 | 0.00 | 63 | 996.0 |
| 20260905180550 | 82 | 27 | 7.0 | 12.0 | 0.00 | 0.00 | 0.00 | 62 | 996.2 |
| 20260905180049 | 82 | 22 | 5.0 | 12.0 | 0.00 | 0.00 | 0.00 | 62 | 996.1 |
| 20260905175549 | 82 | 26 | 6.0 | 12.0 | 0.00 | 0.00 | 0.00 | 62 | 996.2 |
| 20260905175051 | 82 | 12 | 6.0 | 10.0 | 0.00 | 0.00 | 0.00 | 63 | 996.2 |
| 20260905174049 | 81 | 74 | 2.0 | 8.0 | 0.00 | 0.00 | 0.00 | 65 | 996.3 |
| 20260905173548 | 80 | 360 | 4.0 | 9.0 | 0.00 | 0.00 | 0.00 | 66 | 996.4 |
| 20260905173048 | 80 | 360 | 5.0 | 9.0 | 0.00 | 0.00 | 0.00 | 66 | 996.4 |
| 20260905172548 | 79 | 337 | 4.0 | 6.0 | 0.00 | 0.00 | 0.00 | 68 | 996.5 |
| 20260905172048 | 79 | 360 | 2.0 | 6.0 | 0.00 | 0.00 | 0.00 | 68 | 996.4 |
| 20260905171600 | 79 | 360 | 2.0 | 6.0 | 0.00 | 0.00 | 0.00 | 67 | 996.5 |
| 20260905171048 | 79 | 46 | 0.0 | 7.0 | 0.00 | 0.00 | 0.00 | 68 | 996.5 |
| 20260905170548 | 79 | 54 | 4.0 | 7.0 | 0.00 | 0.00 | 0.00 | 69 | 996.5 |
| 20260905170047 | 78 | 78 | 2.0 | 9.0 | 0.00 | 0.00 | 0.00 | 69 | 996.7 |
| 20260905165545 | 79 | 360 | 6.0 | 11.0 | 0.00 | 0.00 | 0.00 | 68 | 996.6 |
| 20260905165045 | 78 | 360 | 5.0 | 13.0 | 0.00 | 0.00 | 0.00 | 69 | 996.4 |
| 20260905164043 | 78 | 117 | 7.0 | 13.0 | 0.00 | 0.00 | 0.00 | 69 | 996.3 |
| 20260905163543 | 78 | 74 | 7.0 | 12.0 | 0.00 | 0.00 | 0.00 | 70 | 996.1 |
| 20260905163051 | 78 | 360 | 8.0 | 12.0 | 0.00 | 0.00 | 0.00 | 70 | 995.9 |
| 20260905162543 | 78 | 51 | 8.0 | 12.0 | 0.00 | 0.00 | 0.00 | 70 | 996.0 |
| 20260905162042 | 77 | 360 | 6.0 | 11.0 | 0.00 | 0.00 | 0.00 | 71 | 995.9 |
| 20260905161541 | 77 | 360 | 3.0 | 8.0 | 0.00 | 0.00 | 0.00 | 72 | 996.0 |
| 20260905161041 | 76 | 360 | 4.0 | 12.0 | 0.00 | 0.00 | 0.00 | 72 | 995.9 |
| 20260905160540 | 76 | 360 | 7.0 | 10.0 | 0.00 | 0.00 | 0.00 | 74 | 995.9 |
| 20260905160041 | 75 | 360 | 2.0 | 10.0 | 0.00 | 0.00 | 0.00 | 74 | 995.8 |
| 20260905155541 | 75 | 94 | 6.0 | 10.0 | 0.00 | 0.00 | 0.00 | 75 | 995.7 |
| 20260905155041 | 74 | 96 | 2.0 | 9.0 | 0.00 | 0.00 | 0.00 | 76 | 995.7 |
| 20260905154044 | 74 | 75 | 4.0 | 9.0 | 0.00 | 0.00 | 0.00 | 76 | 995.9 |
| 20260905153540 | 73 | 87 | 4.0 | 10.0 | 0.00 | 0.00 | 0.00 | 77 | 995.8 |
| 20260905153040 | 73 | 76 | 7.0 | 10.0 | 0.00 | 0.00 | 0.00 | 77 | 995.9 |
| 20260905152541 | 73 | 87 | 6.0 | 9.0 | 0.00 | 0.00 | 0.00 | 77 | 995.8 |
| 20260905152040 | 73 | 78 | 5.0 | 9.0 | 0.00 | 0.00 | 0.00 | 78 | 996.0 |
| 20260905151540 | 72 | 54 | 5.0 | 10.0 | 0.00 | 0.00 | 0.00 | 78 | 996.0 |
| 20260905151039 | 72 | 360 | 5.0 | 10.0 | 0.00 | 0.00 | 0.00 | 79 | 995.9 |
| 20260905150539 | 72 | 44 | 4.0 | 10.0 | 0.00 | 0.00 | 0.00 | 79 | 995.8 |
| 20260905150045 | 72 | 360 | 7.0 | 10.0 | 0.00 | 0.00 | 0.00 | 79 | 995.9 |
| 20260905145542 | 71 | 40 | 6.0 | 11.0 | 0.00 | 0.00 | 0.00 | 80 | 995.9 |